sensor_id;sensor_type;location;lat;lon;timestamp;temperature;humidity
44775;DHT22;31340;51.402;0.016;2023-07-22T00:00:21;17.30;84.20
44775;DHT22;31340;51.402;0.016;2023-07-22T00:02:50;17.40;84.50
44775;DHT22;31340;51.402;0.016;2023-07-22T00:05:17;17.30;84.70
44775;DHT22;31340;51.402;0.016;2023-07-22T00:07:50;17.30;84.80
44775;DHT22;31340;51.402;0.016;2023-07-22T00:10:18;17.30;85.00
44775;DHT22;31340;51.402;0.016;2023-07-22T00:12:46;17.30;85.20
44775;DHT22;31340;51.402;0.016;2023-07-22T00:15:13;17.30;85.20
44775;DHT22;31340;51.402;0.016;2023-07-22T00:17:41;17.30;85.50
44775;DHT22;31340;51.402;0.016;2023-07-22T00:20:10;17.20;85.60
44775;DHT22;31340;51.402;0.016;2023-07-22T00:22:38;17.20;85.70
44775;DHT22;31340;51.402;0.016;2023-07-22T00:25:11;17.30;86.10
44775;DHT22;31340;51.402;0.016;2023-07-22T00:27:40;17.20;86.10
44775;DHT22;31340;51.402;0.016;2023-07-22T00:30:08;17.20;86.40
44775;DHT22;31340;51.402;0.016;2023-07-22T00:32:36;17.20;86.50
44775;DHT22;31340;51.402;0.016;2023-07-22T00:35:08;17.20;86.80
44775;DHT22;31340;51.402;0.016;2023-07-22T00:37:37;17.20;87.00
44775;DHT22;31340;51.402;0.016;2023-07-22T00:40:05;17.20;87.10
44775;DHT22;31340;51.402;0.016;2023-07-22T00:42:34;17.10;87.30
44775;DHT22;31340;51.402;0.016;2023-07-22T00:45:02;17.10;87.50
44775;DHT22;31340;51.402;0.016;2023-07-22T00:47:30;17.00;87.70
44775;DHT22;31340;51.402;0.016;2023-07-22T00:50:00;17.00;87.80
44775;DHT22;31340;51.402;0.016;2023-07-22T00:52:29;16.90;88.70
44775;DHT22;31340;51.402;0.016;2023-07-22T00:54:57;16.90;88.00
44775;DHT22;31340;51.402;0.016;2023-07-22T00:57:28;16.90;89.20
44775;DHT22;31340;51.402;0.016;2023-07-22T00:59:55;16.90;87.90
44775;DHT22;31340;51.402;0.016;2023-07-22T01:02:23;16.80;88.30
44775;DHT22;31340;51.402;0.016;2023-07-22T01:04:51;16.80;88.70
44775;DHT22;31340;51.402;0.016;2023-07-22T01:07:19;16.80;88.80
44775;DHT22;31340;51.402;0.016;2023-07-22T01:09:47;16.80;88.90
44775;DHT22;31340;51.402;0.016;2023-07-22T01:12:15;16.80;88.90
44775;DHT22;31340;51.402;0.016;2023-07-22T01:14:43;16.80;89.00
44775;DHT22;31340;51.402;0.016;2023-07-22T01:17:11;16.80;89.00
44775;DHT22;31340;51.402;0.016;2023-07-22T01:19:39;16.80;89.00
44775;DHT22;31340;51.402;0.016;2023-07-22T01:22:07;16.80;89.10
44775;DHT22;31340;51.402;0.016;2023-07-22T01:24:35;16.80;89.30
44775;DHT22;31340;51.402;0.016;2023-07-22T01:27:06;16.70;89.30
44775;DHT22;31340;51.402;0.016;2023-07-22T01:29:36;16.70;89.50
44775;DHT22;31340;51.402;0.016;2023-07-22T01:32:04;16.70;89.60
44775;DHT22;31340;51.402;0.016;2023-07-22T01:34:32;16.70;89.70
44775;DHT22;31340;51.402;0.016;2023-07-22T01:37:00;16.70;89.80
44775;DHT22;31340;51.402;0.016;2023-07-22T01:39:28;16.70;89.90
44775;DHT22;31340;51.402;0.016;2023-07-22T01:41:55;16.70;90.00
44775;DHT22;31340;51.402;0.016;2023-07-22T01:44:23;16.70;90.00
44775;DHT22;31340;51.402;0.016;2023-07-22T01:46:51;16.70;90.00
44775;DHT22;31340;51.402;0.016;2023-07-22T01:49:20;16.60;90.00
44775;DHT22;31340;51.402;0.016;2023-07-22T01:51:48;16.60;90.00
44775;DHT22;31340;51.402;0.016;2023-07-22T01:54:16;16.70;90.10
44775;DHT22;31340;51.402;0.016;2023-07-22T01:56:43;16.60;90.20
44775;DHT22;31340;51.402;0.016;2023-07-22T01:59:11;16.60;90.20
44775;DHT22;31340;51.402;0.016;2023-07-22T02:01:39;16.60;90.20
44775;DHT22;31340;51.402;0.016;2023-07-22T02:04:07;16.60;90.30
44775;DHT22;31340;51.402;0.016;2023-07-22T02:06:35;16.50;90.30
44775;DHT22;31340;51.402;0.016;2023-07-22T02:09:03;16.50;90.30
44775;DHT22;31340;51.402;0.016;2023-07-22T02:11:36;16.50;90.40
44775;DHT22;31340;51.402;0.016;2023-07-22T02:14:04;16.50;90.40
44775;DHT22;31340;51.402;0.016;2023-07-22T02:16:35;16.50;90.40
44775;DHT22;31340;51.402;0.016;2023-07-22T02:19:06;16.50;90.40
44775;DHT22;31340;51.402;0.016;2023-07-22T02:21:40;16.50;90.20
44775;DHT22;31340;51.402;0.016;2023-07-22T02:24:09;16.40;90.40
44775;DHT22;31340;51.402;0.016;2023-07-22T02:26:36;16.40;90.50
44775;DHT22;31340;51.402;0.016;2023-07-22T02:29:04;16.50;90.50
44775;DHT22;31340;51.402;0.016;2023-07-22T02:31:32;16.50;90.50
44775;DHT22;31340;51.402;0.016;2023-07-22T02:34:00;16.50;90.50
44775;DHT22;31340;51.402;0.016;2023-07-22T02:36:28;16.50;90.60
44775;DHT22;31340;51.402;0.016;2023-07-22T02:38:56;16.50;90.60
44775;DHT22;31340;51.402;0.016;2023-07-22T02:41:24;16.50;90.60
44775;DHT22;31340;51.402;0.016;2023-07-22T02:43:51;16.50;90.70
44775;DHT22;31340;51.402;0.016;2023-07-22T02:46:19;16.50;90.70
44775;DHT22;31340;51.402;0.016;2023-07-22T02:48:47;16.40;90.70
44775;DHT22;31340;51.402;0.016;2023-07-22T02:51:16;16.40;90.80
44775;DHT22;31340;51.402;0.016;2023-07-22T02:53:44;16.40;90.80
44775;DHT22;31340;51.402;0.016;2023-07-22T02:56:14;16.40;90.90
44775;DHT22;31340;51.402;0.016;2023-07-22T02:58:42;16.40;90.90
44775;DHT22;31340;51.402;0.016;2023-07-22T03:01:10;16.40;91.00
44775;DHT22;31340;51.402;0.016;2023-07-22T03:03:39;16.40;91.00
44775;DHT22;31340;51.402;0.016;2023-07-22T03:06:08;16.40;91.00
44775;DHT22;31340;51.402;0.016;2023-07-22T03:08:37;16.40;91.10
44775;DHT22;31340;51.402;0.016;2023-07-22T03:11:05;16.40;91.10
44775;DHT22;31340;51.402;0.016;2023-07-22T03:13:33;16.40;91.20
44775;DHT22;31340;51.402;0.016;2023-07-22T03:16:02;16.40;91.30
44775;DHT22;31340;51.402;0.016;2023-07-22T03:18:33;16.40;91.70
44775;DHT22;31340;51.402;0.016;2023-07-22T03:21:01;16.40;91.40
44775;DHT22;31340;51.402;0.016;2023-07-22T03:23:30;16.40;91.50
44775;DHT22;31340;51.402;0.016;2023-07-22T03:25:57;16.40;91.60
44775;DHT22;31340;51.402;0.016;2023-07-22T03:28:26;16.40;91.60
44775;DHT22;31340;51.402;0.016;2023-07-22T03:30:53;16.40;91.70
44775;DHT22;31340;51.402;0.016;2023-07-22T03:33:21;16.40;91.80
44775;DHT22;31340;51.402;0.016;2023-07-22T03:35:49;16.40;91.90
44775;DHT22;31340;51.402;0.016;2023-07-22T03:38:17;16.40;92.00
44775;DHT22;31340;51.402;0.016;2023-07-22T03:40:45;16.40;92.00
44775;DHT22;31340;51.402;0.016;2023-07-22T03:43:12;16.40;92.10
44775;DHT22;31340;51.402;0.016;2023-07-22T03:45:40;16.40;92.20
44775;DHT22;31340;51.402;0.016;2023-07-22T03:48:08;16.40;92.20
44775;DHT22;31340;51.402;0.016;2023-07-22T03:50:36;16.40;92.30
44775;DHT22;31340;51.402;0.016;2023-07-22T03:53:04;16.40;92.30
44775;DHT22;31340;51.402;0.016;2023-07-22T03:55:31;16.40;92.40
44775;DHT22;31340;51.402;0.016;2023-07-22T03:57:59;16.40;92.50
44775;DHT22;31340;51.402;0.016;2023-07-22T04:00:27;16.40;92.50
44775;DHT22;31340;51.402;0.016;2023-07-22T04:02:55;16.40;92.50
44775;DHT22;31340;51.402;0.016;2023-07-22T04:05:22;16.40;92.50
44775;DHT22;31340;51.402;0.016;2023-07-22T04:07:50;16.40;92.60
44775;DHT22;31340;51.402;0.016;2023-07-22T04:10:18;16.40;92.60
44775;DHT22;31340;51.402;0.016;2023-07-22T04:12:46;16.40;92.60
44775;DHT22;31340;51.402;0.016;2023-07-22T04:15:14;16.40;92.70
44775;DHT22;31340;51.402;0.016;2023-07-22T04:17:42;16.40;92.70
44775;DHT22;31340;51.402;0.016;2023-07-22T04:20:10;16.40;92.80
44775;DHT22;31340;51.402;0.016;2023-07-22T04:22:38;16.40;92.90
44775;DHT22;31340;51.402;0.016;2023-07-22T04:25:07;16.40;93.00
44775;DHT22;31340;51.402;0.016;2023-07-22T04:27:35;16.40;93.00
44775;DHT22;31340;51.402;0.016;2023-07-22T04:30:03;16.40;93.00
44775;DHT22;31340;51.402;0.016;2023-07-22T04:32:32;16.40;93.00
44775;DHT22;31340;51.402;0.016;2023-07-22T04:35:01;16.40;93.10
44775;DHT22;31340;51.402;0.016;2023-07-22T04:37:31;16.40;93.10
44775;DHT22;31340;51.402;0.016;2023-07-22T04:39:59;16.40;93.20
44775;DHT22;31340;51.402;0.016;2023-07-22T04:42:27;16.40;93.20
44775;DHT22;31340;51.402;0.016;2023-07-22T04:44:55;16.40;93.20
44775;DHT22;31340;51.402;0.016;2023-07-22T04:47:22;16.50;93.30
44775;DHT22;31340;51.402;0.016;2023-07-22T04:49:50;16.50;93.40
44775;DHT22;31340;51.402;0.016;2023-07-22T04:52:18;16.50;93.40
44775;DHT22;31340;51.402;0.016;2023-07-22T04:54:46;16.40;93.30
44775;DHT22;31340;51.402;0.016;2023-07-22T04:57:15;16.50;93.40
44775;DHT22;31340;51.402;0.016;2023-07-22T04:59:44;16.50;93.40
44775;DHT22;31340;51.402;0.016;2023-07-22T05:02:12;16.50;93.40
44775;DHT22;31340;51.402;0.016;2023-07-22T05:04:41;16.50;93.40
44775;DHT22;31340;51.402;0.016;2023-07-22T05:07:08;16.50;93.40
44775;DHT22;31340;51.402;0.016;2023-07-22T05:09:37;16.60;93.40
44775;DHT22;31340;51.402;0.016;2023-07-22T05:12:05;16.60;93.40
44775;DHT22;31340;51.402;0.016;2023-07-22T05:14:32;16.60;93.30
44775;DHT22;31340;51.402;0.016;2023-07-22T05:17:00;16.60;93.30
44775;DHT22;31340;51.402;0.016;2023-07-22T05:19:28;16.60;93.20
44775;DHT22;31340;51.402;0.016;2023-07-22T05:21:56;16.60;93.00
44775;DHT22;31340;51.402;0.016;2023-07-22T05:24:24;16.60;93.00
44775;DHT22;31340;51.402;0.016;2023-07-22T05:26:52;16.60;93.00
44775;DHT22;31340;51.402;0.016;2023-07-22T05:29:35;16.60;92.90
44775;DHT22;31340;51.402;0.016;2023-07-22T05:32:02;16.60;92.90
44775;DHT22;31340;51.402;0.016;2023-07-22T05:34:31;16.60;92.90
44775;DHT22;31340;51.402;0.016;2023-07-22T05:36:58;16.70;92.90
44775;DHT22;31340;51.402;0.016;2023-07-22T05:39:26;16.70;92.90
44775;DHT22;31340;51.402;0.016;2023-07-22T05:41:54;16.70;92.80
44775;DHT22;31340;51.402;0.016;2023-07-22T05:44:22;16.70;92.80
44775;DHT22;31340;51.402;0.016;2023-07-22T05:46:50;16.80;92.70
44775;DHT22;31340;51.402;0.016;2023-07-22T05:49:17;16.80;92.60
44775;DHT22;31340;51.402;0.016;2023-07-22T05:51:45;16.80;92.50
44775;DHT22;31340;51.402;0.016;2023-07-22T05:54:12;16.80;92.50
44775;DHT22;31340;51.402;0.016;2023-07-22T05:56:40;16.90;92.50
44775;DHT22;31340;51.402;0.016;2023-07-22T05:59:08;16.90;92.40
44775;DHT22;31340;51.402;0.016;2023-07-22T06:01:36;16.90;92.40
44775;DHT22;31340;51.402;0.016;2023-07-22T06:04:05;17.00;92.40
44775;DHT22;31340;51.402;0.016;2023-07-22T06:06:33;17.00;92.30
44775;DHT22;31340;51.402;0.016;2023-07-22T06:09:02;17.00;92.30
44775;DHT22;31340;51.402;0.016;2023-07-22T06:11:29;17.10;92.20
44775;DHT22;31340;51.402;0.016;2023-07-22T06:13:57;17.10;92.10
44775;DHT22;31340;51.402;0.016;2023-07-22T06:16:24;17.10;92.10
44775;DHT22;31340;51.402;0.016;2023-07-22T06:18:52;17.20;92.10
44775;DHT22;31340;51.402;0.016;2023-07-22T06:21:20;17.20;92.10
44775;DHT22;31340;51.402;0.016;2023-07-22T06:23:48;17.30;92.10
44775;DHT22;31340;51.402;0.016;2023-07-22T06:26:16;17.30;92.00
44775;DHT22;31340;51.402;0.016;2023-07-22T06:28:43;17.30;92.00
44775;DHT22;31340;51.402;0.016;2023-07-22T06:31:11;17.40;92.00
44775;DHT22;31340;51.402;0.016;2023-07-22T06:33:39;17.40;92.00
44775;DHT22;31340;51.402;0.016;2023-07-22T06:36:06;17.40;92.00
44775;DHT22;31340;51.402;0.016;2023-07-22T06:38:33;17.40;92.00
44775;DHT22;31340;51.402;0.016;2023-07-22T06:41:01;17.50;92.10
44775;DHT22;31340;51.402;0.016;2023-07-22T06:43:28;17.50;92.00
44775;DHT22;31340;51.402;0.016;2023-07-22T06:45:56;17.50;92.00
44775;DHT22;31340;51.402;0.016;2023-07-22T06:48:24;17.50;92.00
44775;DHT22;31340;51.402;0.016;2023-07-22T06:50:51;17.50;92.00
44775;DHT22;31340;51.402;0.016;2023-07-22T06:53:19;17.60;91.90
44775;DHT22;31340;51.402;0.016;2023-07-22T06:55:50;17.60;91.90
44775;DHT22;31340;51.402;0.016;2023-07-22T06:58:21;17.70;91.90
44775;DHT22;31340;51.402;0.016;2023-07-22T07:00:53;17.70;91.90
44775;DHT22;31340;51.402;0.016;2023-07-22T07:03:23;17.70;91.80
44775;DHT22;31340;51.402;0.016;2023-07-22T07:05:54;17.70;91.60
44775;DHT22;31340;51.402;0.016;2023-07-22T07:08:22;17.80;91.70
44775;DHT22;31340;51.402;0.016;2023-07-22T07:10:51;17.80;91.60
44775;DHT22;31340;51.402;0.016;2023-07-22T07:13:18;17.80;91.60
44775;DHT22;31340;51.402;0.016;2023-07-22T07:15:47;17.90;91.60
44775;DHT22;31340;51.402;0.016;2023-07-22T07:18:19;17.90;91.60
44775;DHT22;31340;51.402;0.016;2023-07-22T07:20:47;17.90;91.60
44775;DHT22;31340;51.402;0.016;2023-07-22T07:23:15;17.90;91.60
44775;DHT22;31340;51.402;0.016;2023-07-22T07:25:44;18.00;91.50
44775;DHT22;31340;51.402;0.016;2023-07-22T07:28:11;18.00;91.50
44775;DHT22;31340;51.402;0.016;2023-07-22T07:30:40;18.10;91.40
44775;DHT22;31340;51.402;0.016;2023-07-22T07:33:08;18.10;91.30
44775;DHT22;31340;51.402;0.016;2023-07-22T07:35:36;18.10;91.20
44775;DHT22;31340;51.402;0.016;2023-07-22T07:38:03;18.20;91.20
44775;DHT22;31340;51.402;0.016;2023-07-22T07:40:31;18.20;91.20
44775;DHT22;31340;51.402;0.016;2023-07-22T07:42:59;18.30;91.20
44775;DHT22;31340;51.402;0.016;2023-07-22T07:45:26;18.30;91.50
44775;DHT22;31340;51.402;0.016;2023-07-22T07:47:54;18.40;91.10
44775;DHT22;31340;51.402;0.016;2023-07-22T07:50:22;18.50;91.00
44775;DHT22;31340;51.402;0.016;2023-07-22T07:52:50;18.50;90.90
44775;DHT22;31340;51.402;0.016;2023-07-22T07:55:17;18.60;90.90
44775;DHT22;31340;51.402;0.016;2023-07-22T07:57:46;18.70;90.80
44775;DHT22;31340;51.402;0.016;2023-07-22T08:00:14;18.70;90.80
44775;DHT22;31340;51.402;0.016;2023-07-22T08:02:42;18.80;90.70
44775;DHT22;31340;51.402;0.016;2023-07-22T08:05:10;18.80;90.40
44775;DHT22;31340;51.402;0.016;2023-07-22T08:07:39;18.90;90.40
44775;DHT22;31340;51.402;0.016;2023-07-22T08:10:07;18.90;90.10
44775;DHT22;31340;51.402;0.016;2023-07-22T08:12:36;18.90;89.70
44775;DHT22;31340;51.402;0.016;2023-07-22T08:15:05;19.00;89.60
44775;DHT22;31340;51.402;0.016;2023-07-22T08:17:33;19.00;89.60
44775;DHT22;31340;51.402;0.016;2023-07-22T08:20:01;19.10;89.60
44775;DHT22;31340;51.402;0.016;2023-07-22T08:22:28;19.20;89.30
44775;DHT22;31340;51.402;0.016;2023-07-22T08:24:56;19.20;89.10
44775;DHT22;31340;51.402;0.016;2023-07-22T08:27:24;19.40;88.80
44775;DHT22;31340;51.402;0.016;2023-07-22T08:29:51;19.50;88.20
44775;DHT22;31340;51.402;0.016;2023-07-22T08:32:19;19.60;87.20
44775;DHT22;31340;51.402;0.016;2023-07-22T08:34:46;19.60;86.70
44775;DHT22;31340;51.402;0.016;2023-07-22T08:37:14;19.70;86.50
44775;DHT22;31340;51.402;0.016;2023-07-22T08:39:42;19.80;85.90
44775;DHT22;31340;51.402;0.016;2023-07-22T08:42:11;19.80;85.30
44775;DHT22;31340;51.402;0.016;2023-07-22T08:44:43;19.90;85.20
44775;DHT22;31340;51.402;0.016;2023-07-22T08:47:13;19.90;84.90
44775;DHT22;31340;51.402;0.016;2023-07-22T08:49:51;20.00;85.00
44775;DHT22;31340;51.402;0.016;2023-07-22T08:52:19;20.00;84.80
44775;DHT22;31340;51.402;0.016;2023-07-22T08:54:47;20.10;84.60
44775;DHT22;31340;51.402;0.016;2023-07-22T08:57:17;20.20;84.50
44775;DHT22;31340;51.402;0.016;2023-07-22T08:59:46;20.20;84.00
44775;DHT22;31340;51.402;0.016;2023-07-22T09:02:13;20.30;83.80
44775;DHT22;31340;51.402;0.016;2023-07-22T09:04:42;20.40;83.80
44775;DHT22;31340;51.402;0.016;2023-07-22T09:07:11;20.50;84.00
44775;DHT22;31340;51.402;0.016;2023-07-22T09:09:40;20.60;84.10
44775;DHT22;31340;51.402;0.016;2023-07-22T09:12:08;20.70;84.00
44775;DHT22;31340;51.402;0.016;2023-07-22T09:14:38;20.70;84.00
44775;DHT22;31340;51.402;0.016;2023-07-22T09:17:06;20.80;83.00
44775;DHT22;31340;51.402;0.016;2023-07-22T09:19:33;20.80;82.30
44775;DHT22;31340;51.402;0.016;2023-07-22T09:22:01;20.90;81.80
44775;DHT22;31340;51.402;0.016;2023-07-22T09:24:29;20.80;81.90
44775;DHT22;31340;51.402;0.016;2023-07-22T09:26:58;20.80;81.70
44775;DHT22;31340;51.402;0.016;2023-07-22T09:29:37;20.90;81.70
44775;DHT22;31340;51.402;0.016;2023-07-22T09:32:07;20.80;81.70
44775;DHT22;31340;51.402;0.016;2023-07-22T09:34:35;20.80;81.50
44775;DHT22;31340;51.402;0.016;2023-07-22T09:37:02;20.70;81.50
44775;DHT22;31340;51.402;0.016;2023-07-22T09:39:33;20.60;81.90
44775;DHT22;31340;51.402;0.016;2023-07-22T09:42:03;20.50;82.30
44775;DHT22;31340;51.402;0.016;2023-07-22T09:44:31;20.40;83.50
44775;DHT22;31340;51.402;0.016;2023-07-22T09:47:07;20.40;84.20
44775;DHT22;31340;51.402;0.016;2023-07-22T09:49:40;20.30;85.20
44775;DHT22;31340;51.402;0.016;2023-07-22T09:52:11;20.20;85.70
44775;DHT22;31340;51.402;0.016;2023-07-22T09:54:48;20.10;85.90
44775;DHT22;31340;51.402;0.016;2023-07-22T09:57:20;20.10;86.10
44775;DHT22;31340;51.402;0.016;2023-07-22T09:59:49;19.90;86.10
44775;DHT22;31340;51.402;0.016;2023-07-22T10:02:20;19.90;86.60
44775;DHT22;31340;51.402;0.016;2023-07-22T10:04:52;19.90;86.90
44775;DHT22;31340;51.402;0.016;2023-07-22T10:07:20;19.90;87.10
44775;DHT22;31340;51.402;0.016;2023-07-22T10:09:49;19.90;87.10
44775;DHT22;31340;51.402;0.016;2023-07-22T10:12:17;19.90;87.30
44775;DHT22;31340;51.402;0.016;2023-07-22T10:14:45;20.00;87.20
44775;DHT22;31340;51.402;0.016;2023-07-22T10:17:14;20.10;87.00
44775;DHT22;31340;51.402;0.016;2023-07-22T10:19:44;20.10;86.20
44775;DHT22;31340;51.402;0.016;2023-07-22T10:22:12;20.20;85.80
44775;DHT22;31340;51.402;0.016;2023-07-22T10:24:40;20.30;85.50
44775;DHT22;31340;51.402;0.016;2023-07-22T10:27:09;20.40;84.80
44775;DHT22;31340;51.402;0.016;2023-07-22T10:29:38;20.40;84.20
44775;DHT22;31340;51.402;0.016;2023-07-22T10:32:07;20.50;83.70
44775;DHT22;31340;51.402;0.016;2023-07-22T10:34:35;20.60;83.60
44775;DHT22;31340;51.402;0.016;2023-07-22T10:37:02;20.70;83.40
44775;DHT22;31340;51.402;0.016;2023-07-22T10:39:31;20.70;83.30
44775;DHT22;31340;51.402;0.016;2023-07-22T10:42:05;20.80;83.30
44775;DHT22;31340;51.402;0.016;2023-07-22T10:44:37;20.90;82.50
44775;DHT22;31340;51.402;0.016;2023-07-22T10:47:08;20.80;82.20
44775;DHT22;31340;51.402;0.016;2023-07-22T10:49:47;20.80;82.00
44775;DHT22;31340;51.402;0.016;2023-07-22T10:52:42;20.90;81.80
44775;DHT22;31340;51.402;0.016;2023-07-22T10:55:19;20.80;81.60
44775;DHT22;31340;51.402;0.016;2023-07-22T10:57:54;20.80;81.80
44775;DHT22;31340;51.402;0.016;2023-07-22T11:00:29;20.70;81.70
44775;DHT22;31340;51.402;0.016;2023-07-22T11:03:13;20.70;82.00
44775;DHT22;31340;51.402;0.016;2023-07-22T11:05:51;20.70;82.00
44775;DHT22;31340;51.402;0.016;2023-07-22T11:08:38;20.70;82.30
44775;DHT22;31340;51.402;0.016;2023-07-22T11:11:06;20.80;82.10
44775;DHT22;31340;51.402;0.016;2023-07-22T11:13:40;20.80;82.00
44775;DHT22;31340;51.402;0.016;2023-07-22T11:16:12;20.90;81.60
44775;DHT22;31340;51.402;0.016;2023-07-22T11:18:41;20.90;81.20
44775;DHT22;31340;51.402;0.016;2023-07-22T11:21:12;21.00;80.80
44775;DHT22;31340;51.402;0.016;2023-07-22T11:23:40;21.00;80.20
44775;DHT22;31340;51.402;0.016;2023-07-22T11:26:07;21.00;79.90
44775;DHT22;31340;51.402;0.016;2023-07-22T11:28:35;21.00;79.40
44775;DHT22;31340;51.402;0.016;2023-07-22T11:31:04;20.90;79.40
44775;DHT22;31340;51.402;0.016;2023-07-22T11:33:41;20.90;79.50
44775;DHT22;31340;51.402;0.016;2023-07-22T11:36:11;20.90;79.80
44775;DHT22;31340;51.402;0.016;2023-07-22T11:38:40;20.90;79.80
44775;DHT22;31340;51.402;0.016;2023-07-22T11:41:08;20.90;80.00
44775;DHT22;31340;51.402;0.016;2023-07-22T11:43:36;20.90;80.10
44775;DHT22;31340;51.402;0.016;2023-07-22T11:46:05;20.90;80.40
44775;DHT22;31340;51.402;0.016;2023-07-22T11:48:34;21.00;80.70
44775;DHT22;31340;51.402;0.016;2023-07-22T11:51:02;21.00;80.90
44775;DHT22;31340;51.402;0.016;2023-07-22T11:53:31;21.00;81.00
44775;DHT22;31340;51.402;0.016;2023-07-22T11:55:59;21.00;81.20
44775;DHT22;31340;51.402;0.016;2023-07-22T11:58:28;21.00;81.60
44775;DHT22;31340;51.402;0.016;2023-07-22T12:01:04;21.00;81.90
44775;DHT22;31340;51.402;0.016;2023-07-22T12:03:34;20.90;82.60
44775;DHT22;31340;51.402;0.016;2023-07-22T12:06:06;20.80;83.20
44775;DHT22;31340;51.402;0.016;2023-07-22T12:08:34;20.70;84.30
44775;DHT22;31340;51.402;0.016;2023-07-22T12:11:03;20.70;85.30
44775;DHT22;31340;51.402;0.016;2023-07-22T12:13:37;20.60;86.10
44775;DHT22;31340;51.402;0.016;2023-07-22T12:16:06;20.40;87.50
44775;DHT22;31340;51.402;0.016;2023-07-22T12:18:44;20.30;88.20
44775;DHT22;31340;51.402;0.016;2023-07-22T12:21:12;20.20;89.60
44775;DHT22;31340;51.402;0.016;2023-07-22T12:23:41;20.00;90.10
44775;DHT22;31340;51.402;0.016;2023-07-22T12:26:09;19.90;90.60
44775;DHT22;31340;51.402;0.016;2023-07-22T12:28:36;19.70;91.00
44775;DHT22;31340;51.402;0.016;2023-07-22T12:31:04;19.60;91.40
44775;DHT22;31340;51.402;0.016;2023-07-22T12:33:32;19.40;91.80
44775;DHT22;31340;51.402;0.016;2023-07-22T12:35:59;19.30;92.30
44775;DHT22;31340;51.402;0.016;2023-07-22T12:38:28;19.20;92.70
44775;DHT22;31340;51.402;0.016;2023-07-22T12:40:55;19.10;93.00
44775;DHT22;31340;51.402;0.016;2023-07-22T12:43:23;19.00;93.10
44775;DHT22;31340;51.402;0.016;2023-07-22T12:45:51;18.90;93.30
44775;DHT22;31340;51.402;0.016;2023-07-22T12:48:18;18.90;93.60
44775;DHT22;31340;51.402;0.016;2023-07-22T12:50:46;18.80;93.80
44775;DHT22;31340;51.402;0.016;2023-07-22T12:53:17;18.70;94.00
44775;DHT22;31340;51.402;0.016;2023-07-22T12:55:44;18.60;94.10
44775;DHT22;31340;51.402;0.016;2023-07-22T12:58:13;18.60;94.40
44775;DHT22;31340;51.402;0.016;2023-07-22T13:00:41;18.50;94.60
44775;DHT22;31340;51.402;0.016;2023-07-22T13:03:08;18.50;94.90
44775;DHT22;31340;51.402;0.016;2023-07-22T13:05:36;18.40;95.20
44775;DHT22;31340;51.402;0.016;2023-07-22T13:08:04;18.40;95.40
44775;DHT22;31340;51.402;0.016;2023-07-22T13:10:31;18.30;95.50
44775;DHT22;31340;51.402;0.016;2023-07-22T13:13:00;18.30;95.80
44775;DHT22;31340;51.402;0.016;2023-07-22T13:15:28;18.30;96.00
44775;DHT22;31340;51.402;0.016;2023-07-22T13:17:56;18.20;96.20
44775;DHT22;31340;51.402;0.016;2023-07-22T13:20:23;18.20;96.50
44775;DHT22;31340;51.402;0.016;2023-07-22T13:22:51;18.10;96.80
44775;DHT22;31340;51.402;0.016;2023-07-22T13:25:20;18.10;96.90
44775;DHT22;31340;51.402;0.016;2023-07-22T13:27:48;18.10;97.00
44775;DHT22;31340;51.402;0.016;2023-07-22T13:30:16;18.00;97.10
44775;DHT22;31340;51.402;0.016;2023-07-22T13:32:43;18.00;97.20
44775;DHT22;31340;51.402;0.016;2023-07-22T13:35:11;18.10;97.30
44775;DHT22;31340;51.402;0.016;2023-07-22T13:37:39;18.00;97.40
44775;DHT22;31340;51.402;0.016;2023-07-22T13:40:07;18.00;97.50
44775;DHT22;31340;51.402;0.016;2023-07-22T13:42:38;17.90;97.50
44775;DHT22;31340;51.402;0.016;2023-07-22T13:45:06;17.90;97.70
44775;DHT22;31340;51.402;0.016;2023-07-22T13:47:34;17.90;97.90
44775;DHT22;31340;51.402;0.016;2023-07-22T13:50:02;17.90;98.10
44775;DHT22;31340;51.402;0.016;2023-07-22T13:52:29;17.90;98.40
44775;DHT22;31340;51.402;0.016;2023-07-22T13:54:57;17.90;98.50
44775;DHT22;31340;51.402;0.016;2023-07-22T13:57:24;18.00;98.70
44775;DHT22;31340;51.402;0.016;2023-07-22T13:59:52;18.00;98.70
44775;DHT22;31340;51.402;0.016;2023-07-22T14:02:19;18.00;98.80
44775;DHT22;31340;51.402;0.016;2023-07-22T14:04:47;18.00;98.90
44775;DHT22;31340;51.402;0.016;2023-07-22T14:07:15;18.10;99.10
44775;DHT22;31340;51.402;0.016;2023-07-22T14:09:43;18.10;99.30
44775;DHT22;31340;51.402;0.016;2023-07-22T14:12:11;18.20;99.30
44775;DHT22;31340;51.402;0.016;2023-07-22T14:14:40;18.20;99.30
44775;DHT22;31340;51.402;0.016;2023-07-22T14:17:08;18.30;99.40
44775;DHT22;31340;51.402;0.016;2023-07-22T14:19:35;18.30;99.30
44775;DHT22;31340;51.402;0.016;2023-07-22T14:22:03;18.40;99.30
44775;DHT22;31340;51.402;0.016;2023-07-22T14:24:31;18.40;99.20
44775;DHT22;31340;51.402;0.016;2023-07-22T14:26:59;18.40;99.30
44775;DHT22;31340;51.402;0.016;2023-07-22T14:29:26;18.50;99.50
44775;DHT22;31340;51.402;0.016;2023-07-22T14:31:56;18.50;99.50
44775;DHT22;31340;51.402;0.016;2023-07-22T14:34:24;18.50;99.60
44775;DHT22;31340;51.402;0.016;2023-07-22T14:36:52;18.50;99.50
44775;DHT22;31340;51.402;0.016;2023-07-22T14:39:20;18.50;99.40
44775;DHT22;31340;51.402;0.016;2023-07-22T14:41:47;18.50;99.40
44775;DHT22;31340;51.402;0.016;2023-07-22T14:44:15;18.60;99.30
44775;DHT22;31340;51.402;0.016;2023-07-22T14:46:43;18.60;99.30
44775;DHT22;31340;51.402;0.016;2023-07-22T14:49:10;18.50;98.90
44775;DHT22;31340;51.402;0.016;2023-07-22T14:51:38;18.40;98.70
44775;DHT22;31340;51.402;0.016;2023-07-22T14:54:05;18.30;98.60
44775;DHT22;31340;51.402;0.016;2023-07-22T14:56:33;18.40;98.60
44775;DHT22;31340;51.402;0.016;2023-07-22T14:59:01;18.30;98.60
44775;DHT22;31340;51.402;0.016;2023-07-22T15:01:37;18.30;98.60
44775;DHT22;31340;51.402;0.016;2023-07-22T15:04:05;18.20;98.50
44775;DHT22;31340;51.402;0.016;2023-07-22T15:06:34;18.20;98.60
44775;DHT22;31340;51.402;0.016;2023-07-22T15:09:03;18.10;98.70
44775;DHT22;31340;51.402;0.016;2023-07-22T15:11:34;18.00;98.70
44775;DHT22;31340;51.402;0.016;2023-07-22T15:14:04;17.90;98.80
44775;DHT22;31340;51.402;0.016;2023-07-22T15:16:32;17.80;99.00
44775;DHT22;31340;51.402;0.016;2023-07-22T15:19:00;17.80;99.20
44775;DHT22;31340;51.402;0.016;2023-07-22T15:21:28;17.70;99.40
44775;DHT22;31340;51.402;0.016;2023-07-22T15:23:56;17.60;99.60
44775;DHT22;31340;51.402;0.016;2023-07-22T15:26:23;17.60;99.70
44775;DHT22;31340;51.402;0.016;2023-07-22T15:28:52;17.60;99.90
44775;DHT22;31340;51.402;0.016;2023-07-22T15:31:20;17.60;99.90
44775;DHT22;31340;51.402;0.016;2023-07-22T15:33:52;17.60;99.90
44775;DHT22;31340;51.402;0.016;2023-07-22T15:36:20;17.50;99.90
44775;DHT22;31340;51.402;0.016;2023-07-22T15:38:48;17.50;99.90